createdAt,value
2023-12-23T00:04:06.097Z,96975.59
2023-12-23T00:09:09.559Z,96992.75
2023-12-23T00:14:13.102Z,97001.47
2023-12-23T00:19:18.184Z,96992.00
2023-12-23T00:24:21.668Z,97010.91
2023-12-23T00:29:25.061Z,97009.16
2023-12-23T00:34:29.908Z,97016.03
2023-12-23T00:39:34.082Z,97022.06
2023-12-23T00:44:37.532Z,97012.75
2023-12-23T00:49:42.397Z,97001.53
2023-12-23T00:54:45.844Z,97007.44
2023-12-23T00:59:50.046Z,96999.75
2023-12-23T01:04:56.122Z,97016.88
2023-12-23T01:09:59.753Z,97027.97
2023-12-23T01:15:03.761Z,97027.97
2023-12-23T01:20:09.972Z,97021.13
2023-12-23T01:25:13.507Z,97031.59
2023-12-23T01:30:17.254Z,97027.44
2023-12-23T01:35:22.112Z,97023.09
2023-12-23T01:40:26.230Z,97008.56
2023-12-23T01:45:29.968Z,97017.09
2023-12-23T01:50:35.119Z,97004.06
2023-12-23T01:55:38.939Z,96990.22
2023-12-23T02:00:42.717Z,96986.81
2023-12-23T02:05:48.287Z,96989.25
2023-12-23T02:11:00.440Z,96996.97
2023-12-23T02:16:05.056Z,96992.72
2023-12-23T02:21:09.949Z,96979.88
2023-12-23T02:26:15.738Z,96999.53
2023-12-23T02:31:19.900Z,96985.75
2023-12-23T02:36:24.927Z,96968.31
2023-12-23T02:41:28.416Z,96971.72
2023-12-23T02:46:31.822Z,96972.44
2023-12-23T02:51:36.567Z,96968.94
2023-12-23T02:56:40.063Z,96978.34
2023-12-23T03:01:44.471Z,96983.28
2023-12-23T03:06:49.379Z,96971.34
2023-12-23T03:11:52.791Z,96974.00
2023-12-23T03:16:56.940Z,96970.50
2023-12-23T03:22:01.808Z,96953.16
2023-12-23T03:27:05.545Z,96933.53
2023-12-23T03:32:09.045Z,96938.59
2023-12-23T03:37:14.541Z,96941.38
2023-12-23T03:42:20.415Z,96950.16
2023-12-23T03:47:23.924Z,96957.16
2023-12-23T03:52:28.755Z,96951.13
2023-12-23T03:57:32.184Z,96935.72
2023-12-23T04:02:35.632Z,96934.00
2023-12-23T04:07:40.517Z,96940.88
2023-12-23T04:12:44.738Z,96935.78
2023-12-23T04:17:48.329Z,96948.59
2023-12-23T04:22:53.763Z,96963.38
2023-12-23T04:27:57.446Z,96963.53
2023-12-23T04:33:01.023Z,96965.84
2023-12-23T04:38:07.737Z,96958.50
2023-12-23T04:43:11.574Z,96941.97
2023-12-23T04:48:15.538Z,96926.34
2023-12-23T04:53:24.086Z,96908.31
2023-12-23T04:58:27.621Z,96900.50
2023-12-23T05:03:34.466Z,96916.88
2023-12-23T05:08:39.289Z,96939.97
2023-12-23T05:13:44.518Z,96947.69
2023-12-23T05:18:48.127Z,96953.50
2023-12-23T05:23:53.599Z,96925.81
2023-12-23T05:28:57.094Z,96932.47
2023-12-23T05:34:00.861Z,96923.09
2023-12-23T05:39:07.484Z,96928.31
2023-12-23T05:44:10.902Z,96924.00
2023-12-23T05:49:14.447Z,96932.53
2023-12-23T05:54:19.246Z,96936.94
2023-12-23T05:59:22.762Z,96919.88
2023-12-23T06:04:26.470Z,96919.81
2023-12-23T06:09:31.357Z,96913.84
2023-12-23T06:14:35.044Z,96905.56
2023-12-23T06:19:38.433Z,96897.09
2023-12-23T06:24:43.236Z,96890.16
2023-12-23T06:29:46.615Z,96907.41
2023-12-23T06:34:50.002Z,96885.25
2023-12-23T06:39:54.971Z,96888.56
2023-12-23T06:44:58.489Z,96884.84
2023-12-23T06:50:01.963Z,96861.69
2023-12-23T06:55:09.016Z,96849.50
2023-12-23T07:00:13.513Z,96824.53
2023-12-23T07:05:17.419Z,96815.06
2023-12-23T07:10:24.536Z,96817.38
2023-12-23T07:15:27.990Z,96814.75
2023-12-23T07:20:31.594Z,96812.81
2023-12-23T07:25:36.484Z,96810.97
2023-12-23T07:30:46.038Z,96796.34
2023-12-23T07:35:49.951Z,96808.91
2023-12-23T07:40:55.617Z,96847.97
2023-12-23T07:45:59.107Z,96862.44
2023-12-23T07:51:07.909Z,96868.28
2023-12-23T07:56:12.722Z,96869.19
2023-12-23T08:01:16.238Z,96860.09
2023-12-23T08:06:20.266Z,96858.09
2023-12-23T08:11:25.294Z,96851.09
2023-12-23T08:16:28.763Z,96851.97
2023-12-23T08:21:32.717Z,96824.06
2023-12-23T08:26:37.492Z,96804.94
2023-12-23T08:31:44.660Z,96794.72
2023-12-23T08:36:48.140Z,96813.34
2023-12-23T08:41:53.003Z,96809.75
2023-12-23T08:46:56.472Z,96808.28
2023-12-23T08:51:59.849Z,96797.72
2023-12-23T08:57:05.542Z,96804.09
2023-12-23T09:02:09.108Z,96803.31
2023-12-23T09:07:13.521Z,96806.13
2023-12-23T09:12:20.429Z,96838.44
2023-12-23T09:17:24.038Z,96822.22
2023-12-23T09:22:27.574Z,96822.09
2023-12-23T09:27:32.666Z,96803.09
2023-12-23T09:32:36.493Z,96802.22
2023-12-23T09:37:39.869Z,96772.78
2023-12-23T09:42:44.631Z,96757.06
2023-12-23T09:47:48.449Z,96811.47
2023-12-23T09:52:53.830Z,96771.72
2023-12-23T09:57:59.329Z,96811.25
2023-12-23T10:03:03.342Z,96842.44
2023-12-23T10:08:09.286Z,96819.56
2023-12-23T10:14:04.206Z,96824.09
2023-12-23T10:25:53.962Z,96847.78
2023-12-23T11:14:55.375Z,96885.41
2023-12-23T11:20:47.297Z,96875.22
2023-12-23T11:33:12.013Z,96893.41
2023-12-23T11:38:22.231Z,96896.88
2023-12-23T11:43:27.043Z,96901.22
2023-12-23T11:48:30.534Z,96895.25
2023-12-23T11:53:34.119Z,96897.59
2023-12-23T11:58:39.879Z,96912.03
2023-12-23T12:03:43.256Z,96942.44
2023-12-23T12:08:48.157Z,96952.13
2023-12-23T12:13:53.047Z,96952.88
2023-12-23T12:18:56.543Z,96989.09
2023-12-23T12:24:00.699Z,96969.09
2023-12-23T12:29:06.016Z,97001.38
2023-12-23T12:34:09.677Z,97002.72
2023-12-23T12:39:15.493Z,97013.25
2023-12-23T12:44:22.874Z,97034.91
2023-12-23T12:49:26.599Z,97038.44
2023-12-23T12:54:30.473Z,97025.81
2023-12-23T12:59:35.566Z,97051.22
2023-12-23T13:04:41.182Z,97026.94
2023-12-23T13:09:46.863Z,97024.75
2023-12-23T13:14:51.813Z,97043.53
2023-12-23T13:19:55.627Z,97067.34
2023-12-23T13:24:59.567Z,97057.34
2023-12-23T13:30:05.095Z,97074.31
2023-12-23T13:35:10.017Z,97091.03
2023-12-23T13:40:14.454Z,97146.75
2023-12-23T13:45:19.266Z,97162.22
2023-12-23T13:50:23.377Z,97199.09
2023-12-23T13:55:26.861Z,97200.03
2023-12-23T14:00:33.069Z,97211.22
2023-12-23T14:05:38.931Z,97228.38
2023-12-23T14:10:47.387Z,97231.84
2023-12-23T14:15:53.777Z,97269.53
2023-12-23T14:20:57.206Z,97302.03
2023-12-23T14:26:00.628Z,97302.84
2023-12-23T14:31:05.691Z,97301.06
2023-12-23T14:36:09.880Z,97313.94
2023-12-23T14:41:14.099Z,97337.94
2023-12-23T14:46:19.940Z,97320.81
2023-12-23T14:51:24.593Z,97341.41
2023-12-23T14:56:28.101Z,97349.13
2023-12-23T15:01:36.701Z,97355.19
2023-12-23T15:20:07.226Z,97343.16
2023-12-23T15:25:12.002Z,97350.03
2023-12-23T15:30:16.344Z,97344.91
2023-12-23T15:42:46.125Z,97360.31
2023-12-23T15:47:49.968Z,97355.19
2023-12-23T15:52:54.187Z,97361.19
2023-12-23T15:58:00.128Z,97366.34
2023-12-23T16:03:09.448Z,97381.75
2023-12-23T16:08:14.489Z,97383.50
2023-12-23T16:13:19.310Z,97386.94
2023-12-23T16:18:22.996Z,97401.50
2023-12-23T16:23:26.414Z,97404.06
2023-12-23T16:28:31.253Z,97401.50
2023-12-23T16:33:34.875Z,97399.78
2023-12-23T16:38:38.438Z,97412.69
2023-12-23T16:43:43.642Z,97420.38
2023-12-23T16:48:47.414Z,97439.28
2023-12-23T16:53:51.148Z,97438.44
2023-12-23T16:58:56.021Z,97448.72
2023-12-23T17:03:59.543Z,97457.28
2023-12-23T17:09:05.736Z,97469.28
2023-12-23T17:14:10.770Z,97477.88
2023-12-23T17:19:14.241Z,97487.28
2023-12-23T17:24:17.921Z,97492.47
2023-12-23T17:29:23.096Z,97510.47
2023-12-23T17:34:31.799Z,97501.03
2023-12-23T17:39:35.251Z,97499.31
2023-12-23T17:44:40.391Z,97502.78
2023-12-23T17:49:43.902Z,97509.63
2023-12-23T17:54:48.464Z,97510.47
2023-12-23T17:59:53.994Z,97517.34
2023-12-23T18:04:58.180Z,97521.66
2023-12-23T18:10:01.671Z,97533.66
2023-12-23T18:15:07.923Z,97538.81
2023-12-23T18:20:12.509Z,97532.78
2023-12-23T18:25:16.391Z,97539.66
2023-12-23T18:30:21.307Z,97540.53
2023-12-23T18:35:25.081Z,97546.50
2023-12-23T18:40:29.620Z,97555.09
2023-12-23T18:45:36.130Z,97558.53
2023-12-23T18:50:40.756Z,97558.53
2023-12-23T18:55:44.357Z,97561.09
2023-12-23T19:00:49.737Z,97565.41
2023-12-23T19:05:53.432Z,97576.56
2023-12-23T19:10:58.653Z,97584.25
2023-12-23T19:16:07.715Z,97574.81
2023-12-23T19:21:11.142Z,97573.97
2023-12-23T19:26:14.936Z,97554.22
2023-12-23T19:31:19.846Z,97566.25
2023-12-23T19:36:23.372Z,97580.84
2023-12-23T19:41:26.828Z,97579.13
2023-12-23T19:46:35.611Z,97569.66
2023-12-23T19:51:41.450Z,97567.97
2023-12-23T19:56:44.872Z,97574.81
2023-12-23T20:01:49.983Z,97569.66
2023-12-23T20:06:53.838Z,97553.38
2023-12-23T20:11:57.386Z,97565.34
2023-12-23T20:17:02.451Z,97552.50
2023-12-23T20:22:05.962Z,97553.38
2023-12-23T20:27:09.420Z,97569.66
2023-12-23T20:32:14.742Z,97573.94
2023-12-23T20:37:18.580Z,97568.78
2023-12-23T20:42:25.874Z,97563.66
2023-12-23T20:47:30.883Z,97568.78
2023-12-23T20:52:34.315Z,97570.50
2023-12-23T20:57:37.910Z,97583.38
2023-12-23T21:02:43.785Z,97580.81
2023-12-23T21:07:47.238Z,97579.97
2023-12-23T21:12:50.845Z,97581.66
2023-12-23T21:17:56.088Z,97579.09
2023-12-23T21:22:59.664Z,97586.81
2023-12-23T21:28:05.981Z,97591.91
2023-12-23T21:33:12.344Z,97606.50
2023-12-23T21:38:15.839Z,97600.53
2023-12-23T21:43:19.325Z,97634.00
2023-12-23T21:48:24.185Z,97615.13
2023-12-23T21:53:27.654Z,97624.56
2023-12-23T21:58:31.083Z,97623.69
2023-12-23T22:03:36.218Z,97608.25
2023-12-23T22:08:39.826Z,97587.66
2023-12-23T22:13:43.373Z,97603.94
2023-12-23T22:18:48.402Z,97587.66
2023-12-23T22:23:51.858Z,97585.03
2023-12-23T22:28:55.369Z,97577.38
2023-12-23T22:34:01.461Z,97549.06
2023-12-23T22:39:05.234Z,97560.22
2023-12-23T22:44:09.129Z,97563.63
2023-12-23T22:49:14.030Z,97565.31
2023-12-23T22:54:17.423Z,97581.63
2023-12-23T22:59:20.838Z,97585.94
2023-12-23T23:04:25.746Z,97577.31
2023-12-23T23:09:31.061Z,97565.31
2023-12-23T23:14:36.618Z,97570.44
2023-12-23T23:19:44.063Z,97575.59
2023-12-23T23:24:47.598Z,97574.75
2023-12-23T23:29:52.182Z,97574.72
2023-12-23T23:35:01.824Z,97580.72
2023-12-23T23:40:12.565Z,97572.97
2023-12-23T23:45:16.674Z,97573.84
2023-12-23T23:50:22.570Z,97569.53
2023-12-23T23:55:26.002Z,97568.66
